createdAt,value
2023-04-12T11:39:05.566Z,23.27
2023-04-12T11:40:05.543Z,23.27
2023-04-12T11:41:05.548Z,23.19
2023-04-12T11:42:05.555Z,23.24
2023-04-12T11:43:05.515Z,23.22
2023-04-12T11:44:05.511Z,23.22
2023-04-12T11:45:12.106Z,23.22
2023-04-12T11:46:06.576Z,23.20
2023-04-12T11:47:05.511Z,23.11
2023-04-12T11:48:05.561Z,23.09
2023-04-12T11:49:05.501Z,23.02
2023-04-12T11:50:05.513Z,22.95
2023-04-12T11:51:11.385Z,22.90
2023-04-12T11:52:06.472Z,22.87
2023-04-12T11:53:05.520Z,22.86
2023-04-12T11:54:05.448Z,22.83
2023-04-12T11:55:05.512Z,22.83
2023-04-12T11:56:05.426Z,22.82
2023-04-12T11:57:05.883Z,22.82
2023-04-12T11:58:05.410Z,22.81
2023-04-12T11:59:05.424Z,22.81
2023-04-12T12:00:05.463Z,22.82
2023-04-12T12:01:05.403Z,22.83
2023-04-12T12:02:17.155Z,22.84
2023-04-12T12:03:13.990Z,22.83
2023-04-12T12:04:06.815Z,22.83
2023-04-12T12:05:05.486Z,22.84
2023-04-12T12:06:05.524Z,22.84
2023-04-12T12:07:05.899Z,22.87
2023-04-12T12:08:05.348Z,22.87
2023-04-12T12:09:05.365Z,22.89
2023-04-12T12:10:05.333Z,22.90
2023-04-12T12:11:08.291Z,22.90
2023-04-12T12:12:06.229Z,22.91
2023-04-12T12:13:05.320Z,22.92
2023-04-12T12:14:05.325Z,22.93
2023-04-12T12:15:05.328Z,22.93
2023-04-12T12:16:05.324Z,22.94
2023-04-12T12:17:05.312Z,22.94
2023-04-12T12:18:05.443Z,22.94
2023-04-12T12:19:05.293Z,22.93
2023-04-12T12:20:05.281Z,22.94
2023-04-12T12:21:05.272Z,22.94
2023-04-12T12:22:05.293Z,22.95
2023-04-12T12:23:05.259Z,22.96
2023-04-12T12:24:05.279Z,22.96
2023-04-12T12:25:05.251Z,22.97
2023-04-12T12:26:14.794Z,22.97
2023-04-12T12:27:06.352Z,22.96
2023-04-12T12:28:05.463Z,22.96
2023-04-12T12:29:05.324Z,22.96
2023-04-12T12:30:05.350Z,22.96
2023-04-12T12:31:05.380Z,22.95
2023-04-12T12:32:05.375Z,22.95
2023-04-12T12:33:05.468Z,22.97
2023-04-12T12:35:05.387Z,23.03
2023-04-12T12:36:05.426Z,23.05
2023-04-12T12:37:05.438Z,23.08
2023-04-12T12:38:05.390Z,23.09
2023-04-12T12:39:05.418Z,23.11
2023-04-12T12:40:05.436Z,23.13
2023-04-12T12:41:05.451Z,23.15
2023-04-12T12:42:05.611Z,23.17
2023-04-12T12:43:05.429Z,23.20
2023-04-12T12:44:05.454Z,23.21
2023-04-12T12:45:05.466Z,23.23
2023-04-12T12:46:05.513Z,23.24
2023-04-12T12:47:13.620Z,23.23
2023-04-12T12:48:06.522Z,23.23
2023-04-12T12:49:05.475Z,23.24
2023-04-12T12:50:05.473Z,23.24
2023-04-12T12:51:05.432Z,23.26
2023-04-12T12:52:05.447Z,23.25
2023-04-12T12:53:05.405Z,23.25
2023-04-12T12:54:05.400Z,23.25
2023-04-12T12:55:05.451Z,23.25
2023-04-12T12:56:05.417Z,23.25
2023-04-12T12:57:05.433Z,23.25
2023-04-12T12:58:08.447Z,23.25
2023-04-12T12:59:05.478Z,23.25
2023-04-12T13:00:05.370Z,23.25
2023-04-12T13:01:05.374Z,23.25
2023-04-12T13:02:05.582Z,23.24
2023-04-12T13:03:05.465Z,23.25
2023-04-12T13:04:05.548Z,23.28
2023-04-12T13:05:05.414Z,23.29
2023-04-12T13:06:05.318Z,23.30
2023-04-12T13:07:05.314Z,23.30
2023-04-12T13:08:05.331Z,23.32
2023-04-12T13:09:05.315Z,23.32
2023-04-12T13:10:05.321Z,23.32
2023-04-12T13:11:05.299Z,23.32
2023-04-12T13:12:05.405Z,23.29
2023-04-12T13:13:05.280Z,23.29
2023-04-12T13:14:05.277Z,23.30
2023-04-12T13:15:18.012Z,23.30
2023-04-12T13:16:06.273Z,23.28
2023-04-12T13:17:05.291Z,23.28
2023-04-12T13:18:05.303Z,23.26
2023-04-12T13:19:05.233Z,23.27
2023-04-12T13:20:05.245Z,23.28
2023-04-12T13:21:05.250Z,23.27
2023-04-12T13:22:05.231Z,23.29
2023-04-12T13:23:05.234Z,23.31
2023-04-12T13:24:05.236Z,23.31
2023-04-12T13:25:05.221Z,23.28
2023-04-12T13:26:05.214Z,23.26
2023-04-12T13:27:05.172Z,23.24
2023-04-12T13:28:05.193Z,23.24
2023-04-12T13:29:05.168Z,23.22
2023-04-12T13:30:05.176Z,23.21
2023-04-12T13:31:05.178Z,23.20
2023-04-12T13:32:05.250Z,23.18
2023-04-12T13:33:05.186Z,23.16
2023-04-12T13:34:05.148Z,23.15
2023-04-12T13:35:05.151Z,23.13
2023-04-12T13:36:05.117Z,23.12
2023-04-12T13:37:05.132Z,23.10
2023-04-12T13:38:05.175Z,23.08
2023-04-12T13:39:05.090Z,23.07
2023-04-12T13:40:05.273Z,23.05
2023-04-12T13:41:05.162Z,23.03
2023-04-12T13:42:05.196Z,23.02
2023-04-12T13:43:05.209Z,23.02
2023-04-12T13:44:05.237Z,23.00
2023-04-12T13:45:05.301Z,22.99
2023-04-12T13:46:05.333Z,22.99
2023-04-12T13:47:05.401Z,22.98
2023-04-12T13:48:05.543Z,22.95
2023-04-12T13:49:05.397Z,22.96
2023-04-12T13:50:05.837Z,22.97
2023-04-12T13:51:05.466Z,22.98
2023-04-12T13:52:05.529Z,23.01
2023-04-12T13:53:05.568Z,23.02
2023-04-12T13:54:05.567Z,23.03
2023-04-12T13:55:06.309Z,23.04
2023-04-12T13:56:06.311Z,23.05
2023-04-12T13:57:05.679Z,23.06
2023-04-12T13:58:05.807Z,23.07
2023-04-12T13:59:05.721Z,23.08
2023-04-12T14:00:05.810Z,23.11
2023-04-12T14:01:05.792Z,23.12
2023-04-12T14:02:05.830Z,23.15
2023-04-12T14:03:05.963Z,23.16
2023-04-12T14:04:05.849Z,23.18
2023-04-12T14:05:05.943Z,23.21
2023-04-12T14:06:05.844Z,23.21
2023-04-12T14:07:05.849Z,23.22
2023-04-12T14:08:05.881Z,23.24
2023-04-12T14:09:05.935Z,23.25
2023-04-12T14:10:05.918Z,23.25
2023-04-12T14:11:05.902Z,23.26
2023-04-12T14:12:05.902Z,23.27
2023-04-12T14:13:05.937Z,23.29
2023-04-12T14:14:05.929Z,23.28
2023-04-12T14:15:06.341Z,23.28
2023-04-12T14:16:05.975Z,23.28
2023-04-12T14:17:06.043Z,23.28
2023-04-12T14:18:06.034Z,23.27
2023-04-12T14:19:06.794Z,23.30
2023-04-12T14:20:05.998Z,23.32
2023-04-12T14:21:05.966Z,23.32
2023-04-12T14:22:05.989Z,23.32
2023-04-12T14:23:08.013Z,23.31
2023-04-12T14:24:06.010Z,23.30
2023-04-12T14:25:06.041Z,23.29
2023-04-12T14:26:06.048Z,23.27
2023-04-12T14:27:06.086Z,23.27
2023-04-12T14:28:06.091Z,23.27
2023-04-12T14:29:06.059Z,23.27
2023-04-12T14:30:06.080Z,23.27
2023-04-12T14:31:06.702Z,23.27
2023-04-12T14:32:06.132Z,23.28
2023-04-12T14:33:06.200Z,23.28
2023-04-12T14:34:06.098Z,23.27
2023-04-12T14:35:06.128Z,23.27
2023-04-12T14:36:06.133Z,23.27
2023-04-12T14:37:06.167Z,23.27
2023-04-12T14:38:06.169Z,23.27
2023-04-12T14:39:09.279Z,23.27
2023-04-12T14:40:06.212Z,23.27
2023-04-12T14:41:06.176Z,23.27
2023-04-12T14:42:06.219Z,23.25
2023-04-12T14:43:06.224Z,23.24
2023-04-12T14:44:06.175Z,23.23
2023-04-12T14:45:06.150Z,23.23
2023-04-12T14:46:06.185Z,23.21
2023-04-12T14:47:06.162Z,23.19
2023-04-12T14:48:06.234Z,23.17
2023-04-12T14:49:06.147Z,23.14
2023-04-12T14:50:06.126Z,23.12
2023-04-12T14:51:06.133Z,23.11
2023-04-12T14:52:06.128Z,23.08
2023-04-12T14:53:06.097Z,23.07
2023-04-12T14:54:06.095Z,23.05
2023-04-12T14:55:06.096Z,23.03
2023-04-12T14:56:06.096Z,23.02
2023-04-12T14:57:06.088Z,23.00
2023-04-12T14:58:06.114Z,22.98
2023-04-12T14:59:06.163Z,22.97
2023-04-12T15:00:06.070Z,22.96
2023-04-12T15:01:06.097Z,22.94
2023-04-12T15:02:06.223Z,22.93
2023-04-12T15:03:06.215Z,22.92
2023-04-12T15:04:06.401Z,22.92
2023-04-12T15:05:06.147Z,22.90
2023-04-12T15:06:06.037Z,22.89
2023-04-12T15:07:06.028Z,22.89
2023-04-12T15:08:06.016Z,22.87
2023-04-12T15:09:06.593Z,22.87
2023-04-12T15:10:05.998Z,22.86
2023-04-12T15:11:06.019Z,22.84
2023-04-12T15:12:05.983Z,22.84
2023-04-12T15:13:06.011Z,22.87
2023-04-12T15:14:06.332Z,22.90
2023-04-12T15:15:06.530Z,22.92
2023-04-12T15:16:06.041Z,22.93
2023-04-12T15:17:06.036Z,22.93
2023-04-12T15:18:06.107Z,22.94
2023-04-12T15:19:12.612Z,22.94
2023-04-12T15:20:07.095Z,22.95
2023-04-12T15:21:06.304Z,22.94
2023-04-12T15:22:06.100Z,22.95
2023-04-12T15:23:06.155Z,22.94
2023-04-12T15:24:06.061Z,22.94
2023-04-12T15:25:06.318Z,22.94
2023-04-12T15:26:06.044Z,22.94
2023-04-12T15:27:06.858Z,22.94
2023-04-12T15:28:06.041Z,22.94
2023-04-12T15:29:06.022Z,22.94
2023-04-12T15:30:06.095Z,22.93
2023-04-12T15:31:06.059Z,22.93
2023-04-12T15:32:06.065Z,22.93
2023-04-12T15:33:06.057Z,22.93
2023-04-12T15:34:06.066Z,22.93
2023-04-12T15:35:14.999Z,22.92
2023-04-12T15:36:07.053Z,22.91
2023-04-12T15:37:06.115Z,22.91
2023-04-12T15:38:06.086Z,22.90
2023-04-12T15:39:06.032Z,22.90
